createdAt,value
2023-03-29T00:00:12.583Z,96238.41
2023-03-29T00:02:40.868Z,96234.75
2023-03-29T00:05:12.356Z,96241.25
2023-03-29T00:07:41.271Z,96231.72
2023-03-29T00:10:11.095Z,96225.22
2023-03-29T00:12:39.608Z,96227.28
2023-03-29T00:15:08.466Z,96228.66
2023-03-29T00:17:36.551Z,96227.66
2023-03-29T00:20:07.411Z,96223.59
2023-03-29T00:22:37.485Z,96221.75
2023-03-29T00:25:07.274Z,96226.44
2023-03-29T00:27:35.412Z,96222.38
2023-03-29T00:30:04.150Z,96211.81
2023-03-29T00:32:32.336Z,96212.63
2023-03-29T00:35:01.034Z,96209.38
2023-03-29T00:37:30.012Z,96209.13
2023-03-29T00:39:59.854Z,96208.06
2023-03-29T00:42:27.962Z,96209.91
2023-03-29T00:45:01.740Z,96204.19
2023-03-29T00:47:31.524Z,96216.75
2023-03-29T00:50:01.778Z,96204.31
2023-03-29T00:52:32.228Z,96208.97
2023-03-29T00:55:04.049Z,96200.22
2023-03-29T00:57:32.588Z,96197.81
2023-03-29T01:00:00.804Z,96196.56
2023-03-29T01:02:29.667Z,96200.00
2023-03-29T01:04:59.768Z,96204.13
2023-03-29T01:07:30.812Z,96201.47
2023-03-29T01:10:03.451Z,96213.22
2023-03-29T01:12:32.864Z,96212.03
2023-03-29T01:15:03.094Z,96213.41
2023-03-29T01:17:31.724Z,96206.31
2023-03-29T01:20:08.012Z,96209.75
2023-03-29T01:22:39.399Z,96211.78
2023-03-29T01:25:12.594Z,96207.91
2023-03-29T01:27:49.910Z,96197.72
2023-03-29T01:30:19.554Z,96187.97
2023-03-29T01:32:50.551Z,96189.19
2023-03-29T01:35:21.124Z,96183.50
2023-03-29T01:37:52.994Z,96178.22
2023-03-29T01:40:21.041Z,96179.44
2023-03-29T01:42:52.914Z,96163.78
2023-03-29T01:45:23.740Z,96161.16
2023-03-29T01:47:55.983Z,96155.66
2023-03-29T01:50:28.953Z,96158.66
2023-03-29T01:52:58.462Z,96153.56
2023-03-29T01:55:28.362Z,96146.00
2023-03-29T01:57:57.812Z,96151.09
2023-03-29T02:00:27.614Z,96148.66
2023-03-29T02:02:59.274Z,96151.72
2023-03-29T02:05:28.357Z,96147.25
2023-03-29T02:08:00.168Z,96142.78
2023-03-29T02:10:28.830Z,96138.28
2023-03-29T02:12:58.740Z,96134.88
2023-03-29T02:15:28.102Z,96135.63
2023-03-29T02:17:57.334Z,96138.28
2023-03-29T02:20:27.012Z,96135.88
2023-03-29T02:22:57.666Z,96136.44
2023-03-29T02:25:26.105Z,96123.25
2023-03-29T02:27:54.824Z,96117.38
2023-03-29T02:30:24.670Z,96116.78
2023-03-29T02:32:55.431Z,96108.44
2023-03-29T02:35:27.705Z,96121.41
2023-03-29T02:37:56.428Z,96110.63
2023-03-29T02:40:26.072Z,96105.94
2023-03-29T02:42:55.715Z,96096.41
2023-03-29T02:45:25.347Z,96092.31
2023-03-29T02:47:54.671Z,96085.63
2023-03-29T02:50:24.348Z,96084.19
2023-03-29T02:52:54.198Z,96080.38
2023-03-29T02:55:23.897Z,96073.09
2023-03-29T02:57:51.983Z,96075.34
2023-03-29T03:00:23.170Z,96067.66
2023-03-29T03:02:53.397Z,96072.13
2023-03-29T03:05:21.683Z,96064.56
2023-03-29T03:07:49.918Z,96068.47
2023-03-29T03:10:19.211Z,96060.97
2023-03-29T03:12:47.468Z,96051.63
2023-03-29T03:15:15.703Z,96058.13
2023-03-29T03:17:44.737Z,96048.63
2023-03-29T03:20:15.278Z,96048.22
2023-03-29T03:22:45.621Z,96050.88
2023-03-29T03:25:13.775Z,96046.59
2023-03-29T03:27:42.451Z,96045.19
2023-03-29T03:30:11.517Z,96048.66
2023-03-29T03:33:12.919Z,96057.38
2023-03-29T03:36:02.890Z,96053.50
2023-03-29T03:38:32.958Z,96045.78
2023-03-29T03:41:02.750Z,96043.97
2023-03-29T03:43:34.736Z,96036.47
2023-03-29T03:46:03.176Z,96046.22
2023-03-29T03:48:31.735Z,96040.56
2023-03-29T03:51:11.301Z,96035.22
2023-03-29T03:53:39.415Z,96044.16
2023-03-29T03:56:13.908Z,96047.25
2023-03-29T03:59:05.071Z,96047.28
2023-03-29T04:01:59.984Z,96041.19
2023-03-29T04:04:28.823Z,96041.59
2023-03-29T04:07:19.033Z,96035.09
2023-03-29T04:10:14.916Z,96038.56
2023-03-29T04:12:52.450Z,96040.19
2023-03-29T04:15:22.186Z,96038.13
2023-03-29T04:17:58.105Z,96041.38
2023-03-29T04:20:31.090Z,96038.53
2023-03-29T04:23:02.291Z,96034.06
2023-03-29T04:25:31.325Z,96035.66
2023-03-29T04:27:59.361Z,96036.03
2023-03-29T04:30:56.982Z,96033.59
2023-03-29T04:33:41.581Z,96037.13
2023-03-29T04:36:11.192Z,96034.28
2023-03-29T04:38:43.369Z,96026.44
2023-03-29T04:41:15.488Z,96025.47
2023-03-29T04:44:03.737Z,96026.69
2023-03-29T04:46:34.624Z,96030.56
2023-03-29T04:49:11.761Z,96022.63
2023-03-29T04:51:43.560Z,96027.09
2023-03-29T04:54:13.850Z,96029.59
2023-03-29T04:57:05.931Z,96022.28
2023-03-29T04:59:54.245Z,96024.78
2023-03-29T05:02:45.025Z,96019.50
2023-03-29T05:05:14.554Z,96021.31
2023-03-29T05:07:43.707Z,96018.06
2023-03-29T05:10:15.004Z,96011.97
2023-03-29T05:12:43.767Z,96006.28
2023-03-29T05:15:12.343Z,96007.09
2023-03-29T05:17:40.957Z,96004.47
2023-03-29T05:20:13.264Z,96006.28
2023-03-29T05:22:44.243Z,96003.66
2023-03-29T05:25:20.617Z,96011.13
2023-03-29T05:27:48.695Z,96001.16
2023-03-29T05:30:17.173Z,96004.34
2023-03-29T05:33:06.016Z,96002.13
2023-03-29T05:35:36.413Z,96010.44
2023-03-29T05:38:08.880Z,96002.31
2023-03-29T05:40:38.726Z,95992.16
2023-03-29T05:43:41.921Z,95996.19
2023-03-29T05:46:10.198Z,95999.25
2023-03-29T05:48:42.769Z,95998.66
2023-03-29T05:51:11.412Z,96003.13
2023-03-29T05:53:40.054Z,96000.50
2023-03-29T05:56:10.878Z,95997.22
2023-03-29T05:58:39.403Z,96003.31
2023-03-29T06:01:12.598Z,95995.97
2023-03-29T06:03:56.309Z,95993.72
2023-03-29T06:06:30.684Z,95987.63
2023-03-29T06:09:01.367Z,95988.59
2023-03-29T06:11:39.794Z,95987.97
2023-03-29T06:14:10.717Z,95986.88
2023-03-29T06:16:47.157Z,95986.00
2023-03-29T06:19:16.240Z,95974.00
2023-03-29T06:21:45.350Z,95976.34
2023-03-29T06:24:17.006Z,95986.88
2023-03-29T06:26:53.831Z,95985.19
2023-03-29T06:29:22.813Z,95984.38
2023-03-29T06:31:51.846Z,95974.03
2023-03-29T06:34:46.426Z,95974.19
2023-03-29T06:37:53.916Z,95980.88
2023-03-29T06:40:41.003Z,95974.34
2023-03-29T06:43:10.936Z,95989.09
2023-03-29T06:46:02.214Z,95974.88
2023-03-29T06:48:45.079Z,95977.59
2023-03-29T06:51:13.228Z,95977.09
2023-03-29T06:53:41.504Z,95979.31
2023-03-29T06:56:10.277Z,95977.16
2023-03-29T06:58:48.608Z,95985.69
2023-03-29T07:01:32.519Z,95988.47
2023-03-29T07:04:08.178Z,95978.84
2023-03-29T07:07:01.573Z,95984.28
2023-03-29T07:09:32.227Z,95981.50
2023-03-29T07:12:18.808Z,95981.19
2023-03-29T07:14:48.782Z,95984.16
2023-03-29T07:17:18.589Z,95984.59
2023-03-29T07:19:48.908Z,95982.66
2023-03-29T07:22:35.700Z,95990.22
2023-03-29T07:25:05.852Z,96000.00
2023-03-29T07:27:34.393Z,95998.19
2023-03-29T07:30:06.518Z,95998.53
2023-03-29T07:32:36.421Z,96003.72
2023-03-29T07:35:19.120Z,96003.06
2023-03-29T07:37:47.748Z,95999.94
2023-03-29T07:40:18.386Z,95989.34
2023-03-29T07:42:58.830Z,95996.19
2023-03-29T07:45:32.030Z,95998.84
2023-03-29T07:48:03.855Z,95997.72
2023-03-29T07:50:53.988Z,95995.41
2023-03-29T07:53:29.602Z,95999.22
2023-03-29T07:56:00.347Z,95990.91
2023-03-29T07:58:46.571Z,95996.44
2023-03-29T08:01:19.879Z,96000.84
2023-03-29T08:04:07.274Z,95993.69
2023-03-29T08:07:08.937Z,95997.59
2023-03-29T08:10:03.225Z,95993.22
2023-03-29T08:13:01.031Z,95996.06
2023-03-29T08:15:38.028Z,95999.88
2023-03-29T08:18:09.424Z,95996.16
2023-03-29T08:20:37.725Z,95985.97
2023-03-29T08:23:06.450Z,95982.19
2023-03-29T08:26:00.529Z,95983.03
2023-03-29T08:28:29.202Z,95985.25
2023-03-29T08:30:57.415Z,95986.31
2023-03-29T08:33:27.071Z,95979.50
2023-03-29T08:36:12.069Z,95980.66
2023-03-29T08:38:40.824Z,95985.81
2023-03-29T08:41:13.890Z,95985.56
2023-03-29T08:43:50.141Z,95977.00
2023-03-29T08:46:35.130Z,95974.44
2023-03-29T08:49:18.586Z,95966.53
2023-03-29T08:51:47.513Z,95961.47
2023-03-29T08:54:17.140Z,95961.88
2023-03-29T08:57:11.745Z,95958.47
2023-03-29T08:59:43.543Z,95956.44
2023-03-29T09:02:17.899Z,95948.06
2023-03-29T09:04:52.471Z,95940.72
2023-03-29T09:07:28.750Z,95938.75
2023-03-29T09:09:57.701Z,95946.19
2023-03-29T09:12:45.740Z,95947.84
2023-03-29T09:15:16.435Z,95948.50
2023-03-29T09:17:57.805Z,95946.03
2023-03-29T09:20:34.743Z,95939.50
2023-03-29T09:23:10.310Z,95932.25
2023-03-29T09:25:59.942Z,95937.22
2023-03-29T09:28:43.465Z,95942.69
2023-03-29T09:31:14.573Z,95943.47
2023-03-29T09:33:43.811Z,95948.53
2023-03-29T09:36:30.165Z,95947.59
2023-03-29T09:38:58.464Z,95951.34
2023-03-29T09:41:33.871Z,95953.03
2023-03-29T09:44:07.352Z,95950.41
2023-03-29T09:46:40.489Z,95960.91
2023-03-29T09:49:12.426Z,95953.88
2023-03-29T09:51:42.164Z,95943.44
2023-03-29T09:54:12.281Z,95954.88
2023-03-29T09:57:01.186Z,95960.53
2023-03-29T09:59:30.846Z,95947.72
2023-03-29T10:02:07.334Z,95954.69
2023-03-29T10:04:35.712Z,95955.06
2023-03-29T10:07:05.761Z,95954.53
2023-03-29T10:09:34.201Z,95956.25
2023-03-29T10:12:17.150Z,95956.94
2023-03-29T10:14:47.181Z,95960.34
2023-03-29T10:17:16.980Z,95970.59
2023-03-29T10:19:49.975Z,95961.81
2023-03-29T10:22:21.026Z,95945.56
2023-03-29T10:24:49.369Z,95954.00
2023-03-29T10:27:17.809Z,95947.03
2023-03-29T10:29:46.790Z,95947.88
2023-03-29T10:32:16.211Z,95942.50
2023-03-29T10:34:44.539Z,95948.38
2023-03-29T10:37:14.661Z,95939.78
2023-03-29T10:39:44.268Z,95933.84
2023-03-29T10:42:15.261Z,95938.88
2023-03-29T10:44:43.299Z,95930.31
2023-03-29T10:47:16.087Z,95934.91
2023-03-29T10:49:45.008Z,95940.25
2023-03-29T10:52:14.541Z,95930.66
2023-03-29T10:54:44.633Z,95939.56
2023-03-29T10:57:15.903Z,95931.16
2023-03-29T10:59:48.643Z,95920.84
2023-03-29T11:02:46.330Z,95919.97
2023-03-29T11:05:20.618Z,95910.97
2023-03-29T11:07:55.710Z,95920.28
2023-03-29T11:10:31.562Z,95914.69
2023-03-29T11:13:03.080Z,95908.63
2023-03-29T11:15:37.853Z,95903.25
2023-03-29T11:18:17.288Z,95905.81
2023-03-29T11:20:46.119Z,95899.53
2023-03-29T11:23:24.225Z,95898.44
2023-03-29T11:25:58.615Z,95892.44
2023-03-29T11:28:31.383Z,95891.31
2023-03-29T11:31:02.503Z,95895.88
2023-03-29T11:33:37.536Z,95900.59
2023-03-29T11:36:09.327Z,95915.59
2023-03-29T11:38:39.605Z,95903.16
2023-03-29T11:41:13.814Z,95902.72
2023-03-29T11:43:43.488Z,95912.88
2023-03-29T11:46:13.496Z,95902.69
2023-03-29T11:48:43.350Z,95903.81
2023-03-29T11:51:14.034Z,95894.34
2023-03-29T11:53:45.782Z,95900.06
2023-03-29T11:56:16.926Z,95901.47
2023-03-29T11:58:47.519Z,95898.81
2023-03-29T12:01:16.507Z,95900.88
2023-03-29T12:03:47.180Z,95900.84
2023-03-29T12:06:17.624Z,95897.63
2023-03-29T12:08:47.248Z,95897.84
2023-03-29T12:11:20.537Z,95894.25
2023-03-29T12:13:52.479Z,95886.84
2023-03-29T12:16:23.068Z,95882.69
2023-03-29T12:18:52.074Z,95873.50
2023-03-29T12:21:21.302Z,95878.00
2023-03-29T12:23:51.917Z,95877.53
2023-03-29T12:26:30.776Z,95882.75
2023-03-29T12:29:07.367Z,95875.56
2023-03-29T12:31:36.933Z,95882.63
2023-03-29T12:34:11.497Z,95885.31
2023-03-29T12:37:17.654Z,95878.03
2023-03-29T12:40:13.511Z,95879.41
2023-03-29T12:43:03.958Z,95883.84
2023-03-29T12:45:53.941Z,95880.81
2023-03-29T12:48:23.517Z,95878.00
2023-03-29T12:50:51.981Z,95871.91
2023-03-29T12:53:23.637Z,95865.50
2023-03-29T12:55:56.153Z,95880.84
2023-03-29T12:58:43.516Z,95878.50
2023-03-29T13:01:22.645Z,95878.25
2023-03-29T13:03:52.036Z,95869.16
2023-03-29T13:06:30.935Z,95863.00
2023-03-29T13:09:00.954Z,95857.88
2023-03-29T13:11:32.457Z,95849.50
2023-03-29T13:14:03.222Z,95843.88
2023-03-29T13:16:32.159Z,95846.97
2023-03-29T13:19:07.554Z,95854.75
2023-03-29T13:21:40.395Z,95852.06
2023-03-29T13:24:21.041Z,95841.84
2023-03-29T13:26:54.196Z,95836.03
2023-03-29T13:29:34.863Z,95833.88
2023-03-29T13:32:05.407Z,95833.66
2023-03-29T13:34:39.088Z,95836.56
2023-03-29T13:37:13.255Z,95833.91
2023-03-29T13:39:49.718Z,95829.91
2023-03-29T13:42:22.295Z,95827.25
2023-03-29T13:44:53.958Z,95825.13
2023-03-29T13:47:43.207Z,95815.94
2023-03-29T13:50:18.011Z,95813.41
2023-03-29T13:52:52.026Z,95818.69
2023-03-29T13:55:22.387Z,95823.91
2023-03-29T13:57:52.692Z,95820.16
2023-03-29T14:00:23.943Z,95821.56
2023-03-29T14:02:53.098Z,95821.84
2023-03-29T14:05:22.811Z,95834.44
2023-03-29T14:07:51.653Z,95828.81
2023-03-29T14:10:21.325Z,95826.19
2023-03-29T14:12:49.580Z,95819.72
2023-03-29T14:15:24.350Z,95823.25
2023-03-29T14:17:58.970Z,95820.88
2023-03-29T14:20:28.798Z,95821.09
2023-03-29T14:22:56.871Z,95820.09
2023-03-29T14:25:25.547Z,95822.50
2023-03-29T14:27:53.604Z,95818.16
2023-03-29T14:30:27.267Z,95826.47
2023-03-29T14:32:56.863Z,95830.69
2023-03-29T14:35:29.701Z,95824.56
2023-03-29T14:37:58.049Z,95824.59
2023-03-29T14:40:27.662Z,95820.59
2023-03-29T14:42:56.383Z,95816.66
2023-03-29T14:45:26.333Z,95819.59
2023-03-29T14:47:54.532Z,95816.41
2023-03-29T14:50:25.181Z,95823.19
2023-03-29T14:52:53.302Z,95821.56
2023-03-29T14:55:23.849Z,95814.56
2023-03-29T14:57:53.251Z,95809.09
2023-03-29T15:00:28.523Z,95813.63
2023-03-29T15:02:58.281Z,95812.31
2023-03-29T15:05:32.728Z,95798.69
2023-03-29T15:08:01.820Z,95814.84
2023-03-29T15:10:32.252Z,95809.53
2023-03-29T15:13:01.303Z,95818.16
2023-03-29T15:15:31.873Z,95805.03
2023-03-29T15:17:59.983Z,95806.66
2023-03-29T15:20:29.836Z,95812.25
2023-03-29T15:23:00.046Z,95807.16
2023-03-29T15:25:29.400Z,95812.97
2023-03-29T15:28:00.247Z,95817.53
2023-03-29T15:30:35.946Z,95808.38
2023-03-29T15:33:20.794Z,95807.34
2023-03-29T15:35:51.336Z,95807.06
2023-03-29T15:38:20.652Z,95807.13
2023-03-29T15:40:52.027Z,95795.59
2023-03-29T15:43:21.612Z,95799.09
2023-03-29T15:45:51.293Z,95787.06
2023-03-29T15:48:20.500Z,95780.69
2023-03-29T15:50:49.151Z,95793.03
2023-03-29T15:53:18.692Z,95780.22
2023-03-29T15:55:48.434Z,95789.88
2023-03-29T15:58:17.248Z,95786.41
2023-03-29T16:00:46.633Z,95788.28
2023-03-29T16:03:16.878Z,95785.66
2023-03-29T16:05:45.369Z,95780.50
2023-03-29T16:08:13.940Z,95782.91
2023-03-29T16:10:43.831Z,95774.88
2023-03-29T16:13:13.579Z,95771.69
2023-03-29T16:15:42.033Z,95772.75
2023-03-29T16:18:10.255Z,95776.53
2023-03-29T16:20:39.795Z,95772.00
2023-03-29T16:23:09.423Z,95773.91
2023-03-29T16:25:39.901Z,95767.75
2023-03-29T16:28:09.064Z,95767.50
2023-03-29T16:30:38.435Z,95774.19
2023-03-29T16:33:08.739Z,95770.38
2023-03-29T16:35:40.945Z,95764.78
2023-03-29T16:38:09.293Z,95768.28
2023-03-29T16:40:37.683Z,95759.19
2023-03-29T16:43:05.771Z,95760.03
2023-03-29T16:45:33.839Z,95763.50
2023-03-29T16:48:02.641Z,95761.91
2023-03-29T16:50:30.832Z,95764.84
2023-03-29T16:53:00.338Z,95757.38
2023-03-29T16:55:28.494Z,95756.88
2023-03-29T16:57:56.652Z,95757.66
2023-03-29T17:00:24.883Z,95751.78
2023-03-29T17:02:53.391Z,95761.88
2023-03-29T17:05:21.574Z,95761.06
2023-03-29T17:07:49.660Z,95761.06
2023-03-29T17:10:19.276Z,95759.97
2023-03-29T17:12:47.359Z,95757.56
2023-03-29T17:15:15.934Z,95754.84
2023-03-29T17:17:44.403Z,95763.91
2023-03-29T17:20:13.003Z,95759.88
2023-03-29T17:22:41.307Z,95763.66
2023-03-29T17:25:09.920Z,95762.00
2023-03-29T17:27:39.417Z,95765.44
2023-03-29T17:30:09.268Z,95761.16
2023-03-29T17:32:37.478Z,95764.06
2023-03-29T17:35:06.225Z,95755.50
2023-03-29T17:37:34.487Z,95755.97
2023-03-29T17:40:09.769Z,95755.69
2023-03-29T17:42:39.319Z,95754.91
2023-03-29T17:45:08.742Z,95755.72
2023-03-29T17:47:37.239Z,95760.00
2023-03-29T17:50:05.625Z,95763.47
2023-03-29T17:52:33.742Z,95765.63
2023-03-29T17:55:02.024Z,95766.94
2023-03-29T17:57:30.570Z,95769.66
2023-03-29T18:00:01.676Z,95770.72
2023-03-29T18:02:29.860Z,95765.38
2023-03-29T18:05:01.607Z,95767.75
2023-03-29T18:07:29.775Z,95769.34
2023-03-29T18:09:57.947Z,95774.38
2023-03-29T18:12:26.010Z,95775.19
2023-03-29T18:14:54.382Z,95767.97
2023-03-29T18:17:23.908Z,95773.84
2023-03-29T18:19:52.181Z,95775.19
2023-03-29T18:22:20.678Z,95771.72
2023-03-29T18:24:49.307Z,95766.13
2023-03-29T18:27:17.369Z,95759.72
2023-03-29T18:29:45.590Z,95752.25
2023-03-29T18:32:13.962Z,95751.94
2023-03-29T18:34:43.478Z,95760.72
2023-03-29T18:37:15.057Z,95762.78
2023-03-29T18:39:43.187Z,95758.81
2023-03-29T18:42:12.619Z,95758.81
2023-03-29T18:44:42.261Z,95762.28
2023-03-29T18:47:10.788Z,95758.81
2023-03-29T18:49:38.923Z,95764.44
2023-03-29T18:52:09.142Z,95765.50
2023-03-29T18:54:37.348Z,95763.91
2023-03-29T18:57:05.807Z,95767.13
2023-03-29T18:59:35.957Z,95763.97
2023-03-29T19:02:04.112Z,95769.91
2023-03-29T19:04:32.284Z,95767.75
2023-03-29T19:07:01.441Z,95773.63
2023-03-29T19:09:31.675Z,95767.50
2023-03-29T19:11:59.860Z,95763.00
2023-03-29T19:14:28.056Z,95758.72
2023-03-29T19:16:56.927Z,95754.78
2023-03-29T19:19:26.379Z,95748.69
2023-03-29T19:21:57.708Z,95757.78
2023-03-29T19:24:28.091Z,95750.03
2023-03-29T19:26:58.353Z,95749.78
2023-03-29T19:29:27.287Z,95744.94
2023-03-29T19:31:57.023Z,95746.03
2023-03-29T19:34:25.168Z,95743.63
2023-03-29T19:36:55.224Z,95746.03
2023-03-29T19:39:25.300Z,95748.44
2023-03-29T19:41:53.372Z,95747.59
2023-03-29T19:44:23.580Z,95732.63
2023-03-29T19:46:51.843Z,95736.38
2023-03-29T19:49:20.377Z,95727.84
2023-03-29T19:51:49.075Z,95717.16
2023-03-29T19:54:17.595Z,95719.28
2023-03-29T19:56:46.450Z,95716.91
2023-03-29T19:59:15.143Z,95714.50
2023-03-29T20:01:50.805Z,95707.28
2023-03-29T20:04:19.463Z,95708.59
2023-03-29T20:06:47.970Z,95694.75
2023-03-29T20:09:16.327Z,95697.13
2023-03-29T20:11:45.002Z,95679.72
2023-03-29T20:14:13.025Z,95694.94
2023-03-29T20:16:43.337Z,95681.03
2023-03-29T20:19:14.099Z,95683.69
2023-03-29T20:21:42.740Z,95676.47
2023-03-29T20:24:10.885Z,95670.84
2023-03-29T20:26:39.005Z,95678.31
2023-03-29T20:29:07.400Z,95666.63
2023-03-29T20:31:35.536Z,95674.91
2023-03-29T20:34:04.136Z,95666.13
2023-03-29T20:36:33.646Z,95668.00
2023-03-29T20:39:01.981Z,95669.59
2023-03-29T20:41:30.204Z,95663.72
2023-03-29T20:44:00.008Z,95656.81
2023-03-29T20:46:33.512Z,95663.50
2023-03-29T20:49:02.227Z,95659.22
2023-03-29T20:51:31.974Z,95656.84
2023-03-29T20:54:04.532Z,95653.41
2023-03-29T20:56:33.283Z,95650.75
2023-03-29T20:59:01.406Z,95646.44
2023-03-29T21:01:31.222Z,95641.38
2023-03-29T21:03:59.353Z,95638.44
2023-03-29T21:06:27.533Z,95639.53
2023-03-29T21:08:55.674Z,95634.72
2023-03-29T21:11:25.162Z,95639.78
2023-03-29T21:13:54.015Z,95637.38
2023-03-29T21:16:22.567Z,95621.63
2023-03-29T21:18:50.743Z,95623.75
2023-03-29T21:21:18.842Z,95617.88
2023-03-29T21:23:46.949Z,95618.94
2023-03-29T21:26:15.035Z,95612.81
2023-03-29T21:28:44.921Z,95599.69
2023-03-29T21:31:13.009Z,95606.91
2023-03-29T21:33:41.178Z,95610.38
2023-03-29T21:36:09.563Z,95616.50
2023-03-29T21:38:37.806Z,95608.25
2023-03-29T21:41:06.988Z,95600.47
2023-03-29T21:43:35.086Z,95612.50
2023-03-29T21:46:04.551Z,95607.97
2023-03-29T21:48:32.824Z,95600.47
2023-03-29T21:51:01.204Z,95598.06
2023-03-29T21:53:29.331Z,95605.25
2023-03-29T21:55:57.801Z,95599.66
2023-03-29T21:58:28.682Z,95607.16
2023-03-29T22:00:57.307Z,95602.34
2023-03-29T22:03:26.942Z,95599.19
2023-03-29T22:05:58.993Z,95595.16
2023-03-29T22:08:27.667Z,95609.31
2023-03-29T22:10:56.617Z,95601.84
2023-03-29T22:13:24.983Z,95604.53
2023-03-29T22:15:58.653Z,95607.47
2023-03-29T22:18:30.136Z,95611.22
2023-03-29T22:20:58.703Z,95613.34
2023-03-29T22:23:26.799Z,95608.00
2023-03-29T22:25:54.847Z,95595.97
2023-03-29T22:28:22.906Z,95587.44
2023-03-29T22:30:51.000Z,95580.22
2023-03-29T22:33:19.107Z,95575.94
2023-03-29T22:35:48.960Z,95573.84
2023-03-29T22:38:17.085Z,95571.16
2023-03-29T22:40:45.181Z,95559.38
2023-03-29T22:43:13.263Z,95560.75
2023-03-29T22:45:41.326Z,95557.53
2023-03-29T22:48:09.796Z,95557.28
2023-03-29T22:50:37.892Z,95556.22
2023-03-29T22:53:07.617Z,95558.88
2023-03-29T22:55:35.727Z,95552.44
2023-03-29T22:58:03.817Z,95565.81
2023-03-29T23:00:32.015Z,95554.34
2023-03-29T23:03:00.568Z,95552.19
2023-03-29T23:05:28.743Z,95559.41
2023-03-29T23:07:56.872Z,95556.75
2023-03-29T23:10:28.952Z,95555.38
2023-03-29T23:13:08.845Z,95560.47
2023-03-29T23:15:37.341Z,95561.25
2023-03-29T23:18:05.923Z,95548.97
2023-03-29T23:20:34.136Z,95544.97
2023-03-29T23:23:02.569Z,95548.41
2023-03-29T23:25:32.072Z,95535.59
2023-03-29T23:28:00.213Z,95523.81
2023-03-29T23:30:29.677Z,95526.47
2023-03-29T23:32:58.256Z,95512.81
2023-03-29T23:35:26.593Z,95512.22
2023-03-29T23:37:55.246Z,95509.78
2023-03-29T23:40:24.475Z,95516.75
2023-03-29T23:42:59.786Z,95509.78
2023-03-29T23:45:28.205Z,95501.69
2023-03-29T23:47:57.145Z,95513.09
2023-03-29T23:50:28.796Z,95514.66
2023-03-29T23:52:56.853Z,95507.75
2023-03-29T23:55:25.030Z,95499.47
2023-03-29T23:57:54.766Z,95508.81
